createdAt,value
2022-10-19T00:00:05.692Z,23.1
2022-10-19T00:15:05.422Z,23.1
2022-10-19T00:30:01.142Z,23.1
2022-10-19T00:45:02.534Z,23.1
2022-10-19T01:00:02.189Z,23
2022-10-19T01:30:02.095Z,22.9
2022-10-19T01:45:02.314Z,22.9
2022-10-19T02:00:03.501Z,22.8
2022-10-19T02:15:02.615Z,22.8
2022-10-19T02:30:04.136Z,22.7
2022-10-19T02:45:04.598Z,22.6
2022-10-19T03:00:02.509Z,22.6
2022-10-19T03:15:05.111Z,22.5
2022-10-19T03:30:02.248Z,22.5
2022-10-19T03:45:05.469Z,22.5
2022-10-19T04:00:01.224Z,22.5
2022-10-19T04:15:02.505Z,22.4
2022-10-19T04:30:04.122Z,22.5
2022-10-19T04:45:03.588Z,22.4
2022-10-19T05:00:01.639Z,22.4
2022-10-19T05:15:02.498Z,22.3
2022-10-19T05:30:02.483Z,22.4
2022-10-19T05:45:01.129Z,22.4
2022-10-19T06:00:03.501Z,22.4
2022-10-19T06:15:04.549Z,22.4
2022-10-19T06:30:01.435Z,22.3
2022-10-19T06:45:04.279Z,22.3
2022-10-19T07:00:01.224Z,22.1
2022-10-19T07:15:02.540Z,22
2022-10-19T07:30:01.165Z,22.1
2022-10-19T07:45:03.527Z,22.2
2022-10-19T08:00:05.579Z,22.3
2022-10-19T08:15:04.349Z,22.5
2022-10-19T08:30:04.200Z,22.8
2022-10-19T08:45:01.661Z,22.8
2022-10-19T09:00:04.448Z,22.9
2022-10-19T09:15:05.336Z,22.9
2022-10-19T09:30:04.108Z,22.9
2022-10-19T09:45:01.593Z,22.8
2022-10-19T10:00:01.271Z,22.8
2022-10-19T10:15:02.653Z,22.8
2022-10-19T10:30:02.287Z,22.9
2022-10-19T10:45:03.480Z,22.9
2022-10-19T11:00:02.559Z,22.9
2022-10-19T11:15:02.154Z,22.9
2022-10-19T11:30:01.360Z,23
2022-10-19T11:45:04.202Z,22.9
2022-10-19T12:00:05.651Z,22.9
2022-10-19T12:15:04.387Z,22.9
2022-10-19T12:30:01.298Z,22.9
2022-10-19T12:45:01.109Z,22.8
2022-10-19T13:00:05.625Z,22.8
2022-10-19T13:15:04.271Z,22.8
2022-10-19T13:30:02.077Z,22.8
2022-10-19T13:45:01.342Z,22.8
2022-10-19T14:00:05.118Z,22.8
2022-10-19T14:15:03.480Z,22.9
2022-10-19T14:30:02.465Z,22.9
2022-10-19T14:45:05.644Z,22.9
2022-10-19T15:00:05.392Z,23
2022-10-19T15:15:02.151Z,23
2022-10-19T15:30:03.368Z,23
2022-10-19T15:45:03.423Z,23
2022-10-19T16:00:02.496Z,23.1
2022-10-19T16:15:02.144Z,23.2
2022-10-19T16:30:02.352Z,23.3
2022-10-19T16:45:02.557Z,23.4
2022-10-19T17:00:01.215Z,23.6
2022-10-19T17:15:04.545Z,23.6
2022-10-19T17:30:03.427Z,23.7
2022-10-19T17:45:05.394Z,23.8
2022-10-19T18:00:05.117Z,23.8
2022-10-19T18:15:02.442Z,23.9
2022-10-19T18:30:05.653Z,23.9
2022-10-19T18:45:04.403Z,23.9
2022-10-19T19:00:01.185Z,24
2022-10-19T19:15:02.530Z,24
2022-10-19T19:30:01.143Z,24
2022-10-19T19:45:03.508Z,24
2022-10-19T20:00:05.552Z,24.1
2022-10-19T20:30:04.493Z,24.1
2022-10-19T20:45:03.417Z,24
2022-10-19T21:00:01.493Z,24
2022-10-19T21:15:04.319Z,23.8
2022-10-19T21:30:02.213Z,23.7
2022-10-19T21:45:03.441Z,23.6
2022-10-19T22:00:02.490Z,23.4
2022-10-19T22:15:05.593Z,23.3
2022-10-19T22:30:04.297Z,23.2
2022-10-19T22:45:03.186Z,23.1
2022-10-19T23:00:01.271Z,23
2022-10-19T23:15:03.604Z,23
2022-10-19T23:30:03.096Z,22.9
2022-10-19T23:45:01.172Z,22.9
